createdAt,value
2023-03-29T00:02:04.033Z,1.77
2023-03-29T00:04:30.819Z,1.95
2023-03-29T00:06:57.843Z,2.42
2023-03-29T00:09:26.708Z,4.43
2023-03-29T00:11:53.504Z,4.60
2023-03-29T00:14:20.330Z,2.97
2023-03-29T00:16:47.236Z,4.82
2023-03-29T00:19:13.991Z,4.32
2023-03-29T00:21:40.904Z,4.63
2023-03-29T00:24:07.818Z,3.85
2023-03-29T00:26:34.445Z,3.50
2023-03-29T00:29:01.278Z,3.42
2023-03-29T00:31:28.577Z,2.50
2023-03-29T00:33:55.840Z,2.80
2023-03-29T00:36:23.322Z,2.50
2023-03-29T00:38:50.036Z,2.50
2023-03-29T00:41:16.735Z,2.63
2023-03-29T00:43:56.302Z,2.22
2023-03-29T00:46:24.585Z,2.35
2023-03-29T00:48:55.009Z,2.22
2023-03-29T00:51:24.813Z,2.30
2023-03-29T00:53:56.125Z,2.45
2023-03-29T00:56:30.582Z,2.50
2023-03-29T00:59:09.471Z,2.92
2023-03-29T01:01:43.285Z,3.13
2023-03-29T01:04:18.519Z,3.03
2023-03-29T01:07:06.977Z,3.10
2023-03-29T01:09:37.399Z,2.70
2023-03-29T01:12:12.209Z,2.65
2023-03-29T01:14:50.286Z,2.85
2023-03-29T01:17:21.828Z,2.65
2023-03-29T01:19:58.331Z,2.38
2023-03-29T01:22:55.620Z,2.13
2023-03-29T01:25:32.762Z,2.13
2023-03-29T01:28:12.633Z,2.50
2023-03-29T01:30:53.370Z,2.03
2023-03-29T01:33:30.420Z,2.30
2023-03-29T01:36:14.069Z,2.28
2023-03-29T01:38:48.607Z,2.03
2023-03-29T01:41:15.761Z,1.80
2023-03-29T01:43:58.639Z,1.77
2023-03-29T01:46:33.474Z,2.10
2023-03-29T01:49:11.253Z,1.95
2023-03-29T01:51:44.949Z,1.60
2023-03-29T01:54:25.861Z,1.80
2023-03-29T01:56:53.848Z,2.10
2023-03-29T01:59:26.238Z,2.20
2023-03-29T02:01:58.432Z,2.28
2023-03-29T02:04:44.732Z,2.15
2023-03-29T02:07:13.456Z,2.70
2023-03-29T02:09:41.194Z,2.45
2023-03-29T02:12:10.783Z,2.40
2023-03-29T02:14:37.509Z,1.95
2023-03-29T02:17:16.655Z,1.80
2023-03-29T02:19:50.089Z,1.92
2023-03-29T02:22:24.519Z,1.92
2023-03-29T02:24:54.611Z,2.03
2023-03-29T02:27:21.328Z,2.10
2023-03-29T02:29:48.143Z,1.80
2023-03-29T02:32:41.785Z,2.40
2023-03-29T02:35:13.949Z,1.92
2023-03-29T02:37:44.306Z,1.67
2023-03-29T02:40:13.152Z,1.88
2023-03-29T02:42:43.304Z,2.22
2023-03-29T02:45:12.837Z,2.30
2023-03-29T02:47:43.165Z,2.17
2023-03-29T02:50:10.268Z,2.25
2023-03-29T02:52:41.025Z,2.17
2023-03-29T02:55:15.033Z,1.90
2023-03-29T02:57:43.531Z,2.05
2023-03-29T03:00:11.875Z,1.90
2023-03-29T03:02:38.755Z,2.30
2023-03-29T03:05:08.327Z,2.40
2023-03-29T03:07:35.179Z,1.80
2023-03-29T03:10:03.885Z,2.15
2023-03-29T03:12:30.768Z,2.13
2023-03-29T03:14:58.361Z,1.90
2023-03-29T03:17:25.358Z,2.05
2023-03-29T03:19:53.185Z,2.03
2023-03-29T03:22:20.428Z,1.83
2023-03-29T03:24:47.202Z,1.83
2023-03-29T03:27:13.983Z,1.60
2023-03-29T03:29:41.588Z,1.77
2023-03-29T03:32:08.281Z,2.00
2023-03-29T03:35:13.401Z,1.52
2023-03-29T03:37:40.909Z,1.77
2023-03-29T03:40:09.397Z,1.80
2023-03-29T03:42:36.043Z,2.20
2023-03-29T03:45:03.003Z,2.08
2023-03-29T03:47:46.147Z,2.47
2023-03-29T03:50:21.910Z,2.00
2023-03-29T03:52:49.024Z,1.80
2023-03-29T03:55:16.408Z,1.92
2023-03-29T03:57:52.060Z,2.00
2023-03-29T04:00:20.405Z,2.10
2023-03-29T04:02:58.151Z,3.80
2023-03-29T04:05:25.457Z,2.70
2023-03-29T04:07:54.260Z,2.75
2023-03-29T04:10:33.769Z,2.40
2023-03-29T04:13:23.467Z,2.00
2023-03-29T04:16:12.930Z,2.08
2023-03-29T04:18:39.924Z,2.45
2023-03-29T04:21:06.920Z,2.10
2023-03-29T04:23:36.149Z,2.03
2023-03-29T04:26:03.160Z,2.30
2023-03-29T04:28:47.933Z,2.63
2023-03-29T04:31:20.151Z,2.27
2023-03-29T04:34:13.115Z,2.25
2023-03-29T04:36:40.798Z,2.53
2023-03-29T04:39:18.030Z,3.08
2023-03-29T04:41:47.346Z,3.10
2023-03-29T04:44:21.392Z,3.80
2023-03-29T04:46:48.584Z,4.22
2023-03-29T04:49:30.478Z,3.28
2023-03-29T04:51:58.532Z,4.05
2023-03-29T04:54:28.087Z,2.90
2023-03-29T04:57:24.230Z,3.05
2023-03-29T05:00:18.121Z,3.10
2023-03-29T05:03:10.001Z,2.97
2023-03-29T05:05:41.550Z,4.10
2023-03-29T05:08:09.543Z,4.78
2023-03-29T05:10:54.748Z,4.45
2023-03-29T05:13:21.862Z,4.00
2023-03-29T05:15:48.555Z,3.47
2023-03-29T05:18:15.545Z,3.63
2023-03-29T05:20:42.246Z,3.25
2023-03-29T05:23:12.542Z,3.90
2023-03-29T05:26:09.926Z,3.58
2023-03-29T05:28:37.774Z,3.70
2023-03-29T05:31:05.804Z,2.67
2023-03-29T05:33:35.524Z,3.15
2023-03-29T05:36:09.169Z,3.53
2023-03-29T05:38:41.520Z,2.55
2023-03-29T05:41:08.576Z,2.75
2023-03-29T05:43:57.914Z,3.70
2023-03-29T05:46:25.806Z,4.10
2023-03-29T05:48:55.993Z,3.85
2023-03-29T05:51:33.282Z,3.30
2023-03-29T05:54:00.728Z,3.72
2023-03-29T05:56:27.883Z,3.97
2023-03-29T05:58:57.017Z,5.20
2023-03-29T06:01:24.592Z,3.00
2023-03-29T06:03:58.843Z,2.63
2023-03-29T06:06:32.676Z,3.90
2023-03-29T06:09:01.353Z,3.08
2023-03-29T06:11:36.899Z,2.53
2023-03-29T06:14:09.470Z,2.53
2023-03-29T06:16:42.848Z,2.45
2023-03-29T06:19:10.705Z,2.72
2023-03-29T06:21:38.668Z,2.40
2023-03-29T06:24:06.890Z,2.35
2023-03-29T06:26:39.018Z,2.58
2023-03-29T06:29:06.013Z,2.97
2023-03-29T06:31:36.168Z,2.90
2023-03-29T06:34:04.798Z,2.78
2023-03-29T06:36:51.112Z,2.63
2023-03-29T06:39:20.500Z,3.38
2023-03-29T06:42:21.789Z,3.72
2023-03-29T06:45:09.037Z,3.33
2023-03-29T06:47:37.208Z,3.05
2023-03-29T06:50:04.301Z,3.92
2023-03-29T06:55:07.645Z,3.10
2023-03-29T06:57:36.016Z,3.35
2023-03-29T07:00:14.151Z,2.90
2023-03-29T07:03:07.304Z,3.08
2023-03-29T07:05:36.517Z,3.38
2023-03-29T07:08:07.843Z,3.88
2023-03-29T07:10:48.937Z,3.53
2023-03-29T07:13:33.828Z,3.90
2023-03-29T07:16:04.156Z,4.18
2023-03-29T07:18:41.381Z,2.95
2023-03-29T07:21:17.556Z,3.33
2023-03-29T07:23:44.343Z,3.22
2023-03-29T07:26:12.072Z,5.68
2023-03-29T07:28:39.474Z,5.28
2023-03-29T07:31:11.049Z,4.18
2023-03-29T07:33:44.626Z,3.75
2023-03-29T07:36:11.701Z,4.25
2023-03-29T07:38:38.567Z,4.07
2023-03-29T07:41:12.941Z,3.78
2023-03-29T07:43:47.567Z,3.55
2023-03-29T07:46:17.530Z,3.28
2023-03-29T07:48:44.202Z,3.45
2023-03-29T07:51:13.832Z,3.60
2023-03-29T07:53:44.783Z,4.22
2023-03-29T07:56:27.066Z,3.50
2023-03-29T07:59:11.776Z,3.50
2023-03-29T08:01:41.173Z,3.30
2023-03-29T08:04:25.191Z,3.65
2023-03-29T08:07:12.688Z,4.25
2023-03-29T08:09:55.306Z,4.55
2023-03-29T08:12:32.064Z,4.60
2023-03-29T08:14:59.549Z,4.28
2023-03-29T08:17:31.349Z,3.90
2023-03-29T08:19:58.255Z,3.75
2023-03-29T08:22:25.274Z,4.43
2023-03-29T08:25:24.248Z,3.03
2023-03-29T08:27:53.691Z,3.55
2023-03-29T08:30:49.799Z,3.47
2023-03-29T08:33:17.074Z,3.67
2023-03-29T08:35:46.485Z,3.58
2023-03-29T08:38:19.938Z,3.22
2023-03-29T08:40:49.173Z,3.13
2023-03-29T08:43:48.902Z,3.75
2023-03-29T08:47:09.140Z,3.45
2023-03-29T08:49:44.047Z,3.40
2023-03-29T08:54:53.101Z,3.38
2023-03-29T08:57:46.624Z,3.03
2023-03-29T09:00:42.943Z,3.72
2023-03-29T09:03:22.515Z,3.33
2023-03-29T09:05:56.692Z,3.10
2023-03-29T09:08:26.020Z,2.70
2023-03-29T09:11:12.719Z,3.40
2023-03-29T09:13:46.434Z,3.47
2023-03-29T09:19:12.497Z,2.72
2023-03-29T09:21:43.564Z,2.78
2023-03-29T09:24:20.300Z,2.70
2023-03-29T09:27:32.404Z,2.65
2023-03-29T09:30:28.614Z,2.80
2023-03-29T09:33:23.707Z,2.93
2023-03-29T09:36:08.505Z,2.42
2023-03-29T09:38:43.314Z,2.80
2023-03-29T09:41:21.909Z,2.78
2023-03-29T09:43:52.014Z,2.60
2023-03-29T09:46:36.423Z,2.63
2023-03-29T09:49:10.370Z,2.75
2023-03-29T09:51:38.773Z,3.20
2023-03-29T09:54:05.947Z,2.78
2023-03-29T09:56:55.524Z,2.60
2023-03-29T09:59:22.303Z,2.90
2023-03-29T10:01:49.068Z,2.80
2023-03-29T10:04:17.626Z,6.70
2023-03-29T10:06:54.220Z,2.67
2023-03-29T10:09:24.338Z,2.65
2023-03-29T10:12:02.282Z,2.92
2023-03-29T10:14:32.663Z,3.03
2023-03-29T10:16:59.815Z,2.75
2023-03-29T10:19:34.830Z,2.83
2023-03-29T10:22:06.895Z,12.00
2023-03-29T10:24:53.708Z,4.83
2023-03-29T10:27:24.034Z,2.00
2023-03-29T10:29:51.994Z,2.60
2023-03-29T10:32:30.423Z,6.03
2023-03-29T10:35:19.962Z,1.85
2023-03-29T10:37:52.168Z,2.40
2023-03-29T10:40:34.695Z,2.10
2023-03-29T10:45:41.136Z,2.80
2023-03-29T10:48:14.772Z,2.53
2023-03-29T10:50:58.675Z,1.90
2023-03-29T10:53:29.217Z,1.45
2023-03-29T10:56:21.227Z,1.85
2023-03-29T10:58:59.682Z,1.77
2023-03-29T11:01:52.443Z,1.42
2023-03-29T11:04:28.703Z,1.63
2023-03-29T11:07:01.537Z,1.60
2023-03-29T11:09:47.974Z,1.50
2023-03-29T11:12:31.085Z,1.58
2023-03-29T11:17:45.657Z,1.40
2023-03-29T11:20:31.318Z,1.50
2023-03-29T11:23:20.179Z,1.40
2023-03-29T11:26:23.414Z,1.70
2023-03-29T11:29:03.284Z,2.00
2023-03-29T11:32:00.323Z,1.70
2023-03-29T11:34:37.061Z,2.15
2023-03-29T11:37:23.100Z,1.98
2023-03-29T11:40:27.997Z,1.83
2023-03-29T11:42:58.264Z,2.13
2023-03-29T11:45:50.168Z,1.90
2023-03-29T11:48:24.193Z,2.17
2023-03-29T11:51:13.646Z,2.22
2023-03-29T11:53:51.318Z,2.20
2023-03-29T11:56:29.387Z,2.10
2023-03-29T11:59:03.054Z,2.17
2023-03-29T12:01:42.545Z,2.35
2023-03-29T12:04:22.978Z,2.72
2023-03-29T12:07:28.180Z,3.05
2023-03-29T12:10:23.591Z,3.70
2023-03-29T12:13:12.890Z,3.15
2023-03-29T12:15:45.622Z,2.80
2023-03-29T12:18:22.296Z,3.83
2023-03-29T12:20:57.545Z,3.30
2023-03-29T12:23:25.739Z,4.13
2023-03-29T12:26:13.998Z,3.72
2023-03-29T12:28:40.657Z,3.72
2023-03-29T12:31:44.577Z,3.85
2023-03-29T12:34:35.358Z,3.97
2023-03-29T12:37:44.937Z,3.42
2023-03-29T12:40:44.066Z,3.95
2023-03-29T12:43:43.380Z,4.43
2023-03-29T12:46:33.129Z,3.50
2023-03-29T12:49:07.759Z,3.85
2023-03-29T12:51:36.914Z,3.70
2023-03-29T12:54:21.231Z,3.88
2023-03-29T12:56:58.899Z,3.70
2023-03-29T12:59:39.753Z,3.90
2023-03-29T13:02:22.128Z,4.10
2023-03-29T13:04:56.469Z,3.92
2023-03-29T13:07:27.573Z,3.60
2023-03-29T13:10:03.726Z,3.80
2023-03-29T13:12:45.800Z,4.13
2023-03-29T13:15:22.246Z,3.45
2023-03-29T13:17:59.770Z,3.58
2023-03-29T13:21:11.094Z,4.47
2023-03-29T13:23:59.829Z,3.33
2023-03-29T13:26:51.086Z,3.90
2023-03-29T13:29:36.555Z,4.05
2023-03-29T13:32:29.666Z,3.22
2023-03-29T13:35:23.759Z,3.20
2023-03-29T13:38:16.374Z,2.80
2023-03-29T13:43:47.560Z,2.03
2023-03-29T13:46:23.361Z,3.00
2023-03-29T13:49:05.755Z,2.90
2023-03-29T13:51:39.693Z,2.70
2023-03-29T13:54:32.654Z,3.10
2023-03-29T13:57:17.962Z,2.95
2023-03-29T13:59:47.735Z,3.30
2023-03-29T14:02:22.162Z,2.97
2023-03-29T14:04:52.199Z,3.03
2023-03-29T14:07:26.207Z,3.15
2023-03-29T14:09:54.982Z,2.67
2023-03-29T14:12:22.785Z,2.78
2023-03-29T14:15:01.489Z,2.88
2023-03-29T14:17:29.064Z,3.10
2023-03-29T14:19:58.444Z,3.00
2023-03-29T14:22:31.208Z,2.85
2023-03-29T14:25:02.600Z,3.40
2023-03-29T14:27:32.397Z,2.95
2023-03-29T14:30:00.236Z,2.75
2023-03-29T14:32:31.474Z,3.00
2023-03-29T14:34:58.954Z,3.08
2023-03-29T14:37:29.330Z,3.08
2023-03-29T14:39:59.270Z,3.20
2023-03-29T14:42:28.720Z,3.22
2023-03-29T14:45:07.272Z,2.95
2023-03-29T14:47:35.182Z,2.70
2023-03-29T14:50:04.081Z,3.08
2023-03-29T14:52:32.065Z,3.38
2023-03-29T14:55:01.868Z,3.03
2023-03-29T14:57:34.838Z,3.35
2023-03-29T15:00:26.047Z,3.10
2023-03-29T15:02:55.814Z,3.70
2023-03-29T15:05:25.556Z,3.38
2023-03-29T15:07:56.276Z,2.95
2023-03-29T15:10:23.738Z,3.00
2023-03-29T15:12:51.170Z,2.80
2023-03-29T15:15:18.769Z,3.28
2023-03-29T15:17:51.034Z,2.80
2023-03-29T15:20:27.770Z,3.05
2023-03-29T15:23:08.039Z,3.45
2023-03-29T15:25:46.008Z,3.60
2023-03-29T15:28:33.861Z,3.50
2023-03-29T15:31:10.919Z,3.25
2023-03-29T15:33:39.787Z,3.38
2023-03-29T15:36:08.688Z,3.53
2023-03-29T15:38:44.099Z,3.40
2023-03-29T15:41:13.567Z,3.50
2023-03-29T15:43:41.382Z,4.30
2023-03-29T15:46:11.203Z,3.42
2023-03-29T15:48:38.510Z,3.53
2023-03-29T15:51:06.916Z,3.70
2023-03-29T15:53:35.449Z,3.47
2023-03-29T15:56:05.529Z,3.20
2023-03-29T15:58:34.820Z,3.05
2023-03-29T16:01:34.520Z,3.17
2023-03-29T16:04:06.890Z,3.10
2023-03-29T16:06:35.006Z,3.20
2023-03-29T16:09:02.276Z,3.10
2023-03-29T16:11:29.444Z,3.03
2023-03-29T16:13:56.967Z,3.40
2023-03-29T16:16:23.956Z,2.80
2023-03-29T16:18:51.227Z,2.97
2023-03-29T16:21:22.137Z,3.25
2023-03-29T16:23:48.853Z,3.05
2023-03-29T16:26:17.173Z,3.20
2023-03-29T16:28:44.090Z,3.53
2023-03-29T16:31:12.413Z,3.13
2023-03-29T16:33:40.254Z,3.25
2023-03-29T16:36:08.075Z,3.30
2023-03-29T16:38:34.927Z,3.17
2023-03-29T16:41:02.122Z,3.10
2023-03-29T16:43:29.603Z,3.38
2023-03-29T16:45:57.043Z,3.63
2023-03-29T16:48:24.063Z,3.78
2023-03-29T16:50:50.941Z,3.72
2023-03-29T16:53:21.613Z,4.47
2023-03-29T16:55:48.755Z,4.05
2023-03-29T16:58:15.607Z,3.80
2023-03-29T17:00:44.388Z,3.38
2023-03-29T17:03:13.122Z,4.00
2023-03-29T17:05:41.871Z,3.60
2023-03-29T17:08:10.439Z,3.80
2023-03-29T17:10:41.091Z,3.80
2023-03-29T17:13:09.165Z,4.32
2023-03-29T17:15:39.376Z,3.85
2023-03-29T17:18:07.313Z,3.42
2023-03-29T17:20:34.820Z,3.92
2023-03-29T17:23:01.899Z,3.97
2023-03-29T17:25:29.015Z,4.05
2023-03-29T17:27:56.394Z,3.90
2023-03-29T17:30:23.973Z,3.67
2023-03-29T17:32:53.089Z,4.13
2023-03-29T17:35:20.401Z,3.58
2023-03-29T17:37:47.304Z,3.90
2023-03-29T17:40:14.189Z,3.90
2023-03-29T17:42:42.020Z,3.60
2023-03-29T17:45:10.331Z,4.03
2023-03-29T17:47:38.020Z,3.58
2023-03-29T17:50:06.201Z,3.95
2023-03-29T17:52:32.940Z,3.85
2023-03-29T17:54:59.584Z,3.83
2023-03-29T17:57:26.401Z,3.75
2023-03-29T17:59:53.388Z,4.60
2023-03-29T18:02:22.863Z,4.60
2023-03-29T18:04:50.509Z,4.88
2023-03-29T18:07:17.504Z,5.38
2023-03-29T18:09:44.258Z,5.47
2023-03-29T18:12:12.696Z,5.30
2023-03-29T18:14:40.863Z,5.40
2023-03-29T18:17:08.402Z,5.78
2023-03-29T18:19:35.840Z,5.18
2023-03-29T18:22:02.761Z,6.22
2023-03-29T18:24:29.568Z,6.45
2023-03-29T18:26:56.724Z,5.45
2023-03-29T18:29:24.463Z,5.45
2023-03-29T18:31:52.841Z,4.90
2023-03-29T18:34:20.476Z,5.32
2023-03-29T18:36:47.602Z,4.85
2023-03-29T18:39:14.292Z,5.50
2023-03-29T18:41:41.344Z,6.78
2023-03-29T18:44:08.235Z,6.25
2023-03-29T18:46:35.573Z,5.68
2023-03-29T18:49:02.705Z,5.15
2023-03-29T18:51:31.566Z,4.90
2023-03-29T18:53:58.411Z,5.75
2023-03-29T18:56:26.068Z,5.30
2023-03-29T18:58:53.806Z,5.70
2023-03-29T19:01:21.308Z,5.18
2023-03-29T19:03:48.223Z,5.35
2023-03-29T19:06:16.759Z,5.38
2023-03-29T19:08:43.439Z,5.40
2023-03-29T19:11:14.175Z,4.90
2023-03-29T19:13:41.151Z,5.70
2023-03-29T19:16:09.615Z,5.38
2023-03-29T19:18:36.664Z,5.93
2023-03-29T19:23:30.668Z,6.65
2023-03-29T19:26:00.333Z,6.50
2023-03-29T19:28:28.222Z,6.63
2023-03-29T19:30:56.718Z,6.50
2023-03-29T19:33:23.479Z,6.60
2023-03-29T19:35:51.788Z,6.25
2023-03-29T19:38:19.394Z,6.15
2023-03-29T19:40:47.580Z,6.20
2023-03-29T19:43:16.627Z,5.85
2023-03-29T19:45:44.366Z,6.10
2023-03-29T19:48:21.749Z,6.10
2023-03-29T19:50:57.893Z,5.82
2023-03-29T19:53:31.283Z,5.45
2023-03-29T19:58:34.667Z,5.93
2023-03-29T20:01:05.964Z,5.32
2023-03-29T20:03:36.810Z,5.32
2023-03-29T20:06:10.640Z,5.47
2023-03-29T20:08:42.446Z,5.10
2023-03-29T20:11:17.364Z,5.45
2023-03-29T20:13:45.678Z,5.35
2023-03-29T20:16:17.083Z,5.80
2023-03-29T20:18:45.803Z,6.43
2023-03-29T20:21:17.279Z,7.85
2023-03-29T20:23:46.242Z,7.50
2023-03-29T20:26:13.408Z,8.10
2023-03-29T20:28:41.311Z,7.25
2023-03-29T20:31:11.825Z,7.75
2023-03-29T20:33:39.874Z,9.20
2023-03-29T20:36:07.320Z,8.00
2023-03-29T20:38:35.465Z,8.35
2023-03-29T20:41:04.439Z,7.43
2023-03-29T20:43:39.697Z,8.70
2023-03-29T20:46:16.592Z,8.07
2023-03-29T20:48:53.601Z,7.53
2023-03-29T20:51:28.952Z,7.13
2023-03-29T20:54:06.102Z,7.97
2023-03-29T20:56:43.244Z,8.02
2023-03-29T20:59:11.187Z,8.63
2023-03-29T21:01:41.220Z,8.95
2023-03-29T21:04:11.887Z,8.20
2023-03-29T21:06:41.174Z,7.82
2023-03-29T21:09:08.763Z,7.70
2023-03-29T21:11:36.268Z,7.03
2023-03-29T21:14:04.948Z,7.80
2023-03-29T21:16:34.752Z,8.13
2023-03-29T21:19:02.228Z,7.80
2023-03-29T21:21:30.843Z,8.18
2023-03-29T21:24:03.248Z,6.40
2023-03-29T21:26:32.260Z,6.10
2023-03-29T21:28:59.252Z,6.20
2023-03-29T21:31:27.099Z,5.60
2023-03-29T21:33:56.547Z,5.88
2023-03-29T21:36:25.808Z,5.15
2023-03-29T21:38:53.160Z,5.40
2023-03-29T21:41:21.844Z,4.97
2023-03-29T21:43:50.072Z,5.15
2023-03-29T21:46:17.025Z,5.68
2023-03-29T21:48:43.968Z,5.55
2023-03-29T21:51:12.285Z,5.68
2023-03-29T21:53:39.171Z,8.20
2023-03-29T21:56:06.780Z,9.00
2023-03-29T21:58:33.716Z,7.85
2023-03-29T22:01:03.799Z,8.05
2023-03-29T22:03:30.807Z,8.05
2023-03-29T22:06:08.585Z,7.00
2023-03-29T22:08:38.845Z,7.22
2023-03-29T22:11:16.427Z,6.22
2023-03-29T22:13:44.142Z,6.15
2023-03-29T22:16:18.736Z,5.95
2023-03-29T22:18:49.753Z,5.57
2023-03-29T22:21:26.559Z,4.78
2023-03-29T22:23:55.577Z,4.70
2023-03-29T22:26:27.765Z,6.22
2023-03-29T22:28:56.174Z,5.55
2023-03-29T22:31:24.740Z,5.22
2023-03-29T22:33:51.631Z,5.53
2023-03-29T22:36:28.439Z,5.38
2023-03-29T22:38:56.034Z,5.03
2023-03-29T22:41:24.279Z,5.40
2023-03-29T22:43:55.491Z,6.25
2023-03-29T22:46:23.624Z,5.30
2023-03-29T22:48:51.326Z,5.70
2023-03-29T22:51:18.568Z,5.72
2023-03-29T22:53:47.106Z,4.78
2023-03-29T22:56:15.689Z,5.95
2023-03-29T22:58:43.074Z,5.32
2023-03-29T23:01:09.930Z,5.35
2023-03-29T23:03:37.037Z,6.22
2023-03-29T23:06:05.017Z,6.82
2023-03-29T23:08:33.127Z,8.10
2023-03-29T23:11:00.667Z,6.13
2023-03-29T23:13:29.152Z,6.20
2023-03-29T23:15:59.205Z,6.57
2023-03-29T23:18:27.820Z,6.45
2023-03-29T23:20:56.567Z,6.60
2023-03-29T23:23:24.692Z,5.85
2023-03-29T23:25:53.073Z,6.35
2023-03-29T23:28:23.455Z,6.63
2023-03-29T23:31:05.821Z,7.47
2023-03-29T23:33:35.512Z,6.90
2023-03-29T23:36:04.683Z,6.47
2023-03-29T23:38:34.386Z,6.13
2023-03-29T23:41:03.926Z,5.88
2023-03-29T23:43:34.176Z,6.82
2023-03-29T23:46:03.355Z,6.47
2023-03-29T23:48:30.636Z,5.78
2023-03-29T23:50:57.445Z,6.40
2023-03-29T23:53:28.454Z,5.80
2023-03-29T23:56:03.654Z,6.35
2023-03-29T23:58:32.959Z,6.43
